Time;durP1;ratioP1;P1;durP2;ratioP2;P2;SDS_P1;SDS_P2;PMS_P1;PMS_P2;Temp;Humidity;BMP_temperature;BMP_pressure;BME280_temperature;BME280_humidity;BME280_pressure;Samples;Min_cycle;Max_cycle;Signal;HPM_P1;HPM_P2
2022/03/14 00:01:15;;;;;;;1.17;1.07;;;14.80;55.80;;;;;;5067758;28;20048;-48
2022/03/14 00:04:05;;;;;;;1.73;1.15;;;14.70;55.80;;;;;;5069297;28;20048;-47
2022/03/14 00:06:32;;;;;;;1.48;1.38;;;14.70;55.70;;;;;;5059497;28;20091;-50
2022/03/14 00:09:07;;;;;;;1.75;1.33;;;14.60;55.60;;;;;;5049269;28;20071;-48
2022/03/14 00:11:37;;;;;;;1.77;1.30;;;14.60;55.90;;;;;;5063887;28;20047;-48
2022/03/14 00:14:07;;;;;;;1.90;1.50;;;14.60;55.80;;;;;;5071388;28;20113;-48
2022/03/14 00:16:45;;;;;;;1.70;1.60;;;14.50;56.30;;;;;;5056349;28;20110;-48
2022/03/14 00:19:14;;;;;;;1.75;1.65;;;14.50;55.90;;;;;;5052592;28;20119;-49
2022/03/14 00:21:41;;;;;;;1.70;1.58;;;14.50;55.80;;;;;;5070496;28;20467;-48
2022/03/14 00:24:11;;;;;;;2.70;1.88;;;14.50;55.90;;;;;;5071586;28;20105;-49
2022/03/14 00:26:39;;;;;;;1.52;1.30;;;14.40;55.80;;;;;;5052142;28;20041;-50
2022/03/14 00:29:07;;;;;;;1.92;1.70;;;14.40;55.80;;;;;;5057595;28;20048;-50
2022/03/14 00:31:35;;;;;;;2.15;1.77;;;14.40;55.80;;;;;;5069413;28;20040;-50
2022/03/14 00:34:02;;;;;;;1.25;1.20;;;14.40;55.60;;;;;;5071272;28;20044;-49
2022/03/14 00:36:30;;;;;;;1.83;1.67;;;14.40;55.60;;;;;;5052572;28;20047;-47
2022/03/14 00:38:56;;;;;;;2.25;2.05;;;14.40;55.80;;;;;;5064979;28;20072;-48
2022/03/14 00:41:23;;;;;;;1.60;1.35;;;14.30;55.70;;;;;;5071281;28;20475;-48
2022/03/14 00:43:51;;;;;;;2.67;1.80;;;14.40;55.80;;;;;;5063502;28;20141;-48
2022/03/14 00:46:18;;;;;;;2.08;1.88;;;14.40;55.80;;;;;;5051545;28;20412;-50
2022/03/14 00:48:46;;;;;;;1.73;1.60;;;14.40;55.80;;;;;;5067360;28;20060;-48
2022/03/14 00:51:13;;;;;;;2.03;1.58;;;14.40;55.70;;;;;;5068430;28;20131;-48
2022/03/14 00:53:40;;;;;;;2.40;1.70;;;14.40;56.30;;;;;;5068018;28;20068;-47
2022/03/14 00:56:07;;;;;;;1.73;1.60;;;14.40;55.70;;;;;;5049027;28;20045;-47
2022/03/14 00:58:34;;;;;;;1.63;1.50;;;14.40;55.60;;;;;;5066711;28;20063;-50
2022/03/14 01:01:03;;;;;;;2.40;1.90;;;14.30;55.50;;;;;;5071444;28;20405;-48
2022/03/14 01:03:30;;;;;;;1.63;1.52;;;14.30;55.60;;;;;;5063161;28;20044;-46
2022/03/14 01:05:57;;;;;;;1.70;1.60;;;14.30;55.70;;;;;;5058987;28;20063;-48
2022/03/14 01:08:24;;;;;;;2.25;1.95;;;14.30;55.80;;;;;;5066666;28;20071;-48
2022/03/14 01:10:50;;;;;;;1.73;1.50;;;14.40;55.70;;;;;;5059427;28;20110;-50
2022/03/14 01:13:18;;;;;;;2.40;2.05;;;14.30;55.60;;;;;;5050770;28;20053;-48
2022/03/14 01:15:45;;;;;;;2.25;1.60;;;14.40;55.80;;;;;;5048291;28;20610;-47
2022/03/14 01:18:13;;;;;;;2.13;1.88;;;14.30;55.70;;;;;;5063681;28;20779;-51
2022/03/14 01:20:41;;;;;;;2.10;1.77;;;14.40;55.80;;;;;;5070607;28;20441;-47
2022/03/14 01:23:08;;;;;;;2.13;1.75;;;14.40;55.90;;;;;;5063482;28;20087;-48
2022/03/14 01:25:36;;;;;;;2.22;1.67;;;14.30;55.80;;;;;;5053434;28;20053;-48
2022/03/14 01:28:04;;;;;;;1.95;1.77;;;14.30;56.50;;;;;;5070208;28;20106;-48
2022/03/14 01:30:31;;;;;;;1.67;1.45;;;14.30;55.70;;;;;;5070686;28;20052;-47
2022/03/14 01:32:59;;;;;;;2.30;1.73;;;14.30;55.80;;;;;;5051325;28;20060;-47
2022/03/14 01:35:26;;;;;;;1.95;1.75;;;14.30;55.80;;;;;;5066299;28;20098;-48
2022/03/14 01:37:53;;;;;;;1.63;1.50;;;14.30;55.80;;;;;;5063184;28;20072;-51
2022/03/14 01:40:22;;;;;;;2.25;1.98;;;14.30;55.70;;;;;;5049806;28;20068;-47
2022/03/14 01:42:50;;;;;;;1.65;1.55;;;14.30;55.70;;;;;;5052861;28;20041;-48
2022/03/14 01:45:17;;;;;;;2.50;2.08;;;14.30;55.80;;;;;;5061440;28;20080;-47
2022/03/14 01:47:45;;;;;;;1.33;1.23;;;14.30;55.80;;;;;;5068313;28;20040;-47
2022/03/14 01:50:13;;;;;;;1.65;1.55;;;14.30;55.90;;;;;;5058118;28;20045;-48
2022/03/14 01:52:41;;;;;;;1.52;1.42;;;14.30;56.00;;;;;;5060434;28;20056;-47
2022/03/14 01:55:09;;;;;;;1.83;1.60;;;14.30;55.80;;;;;;5069804;28;20048;-47
2022/03/14 01:57:37;;;;;;;1.63;1.50;;;14.30;55.80;;;;;;5069648;28;20598;-50
2022/03/14 02:00:06;;;;;;;1.35;1.25;;;14.30;55.70;;;;;;5047175;28;20081;-47
2022/03/14 02:02:40;;;;;;;1.08;1.05;;;14.30;55.90;;;;;;5056635;28;20045;-48
2022/03/14 02:05:07;;;;;;;2.20;1.63;;;14.30;55.70;;;;;;5069873;28;20110;-47
2022/03/14 02:07:34;;;;;;;1.20;1.10;;;14.30;55.80;;;;;;5069529;28;20098;-48
2022/03/14 02:10:01;;;;;;;1.67;1.17;;;14.30;55.80;;;;;;5049903;28;20053;-50
2022/03/14 02:12:28;;;;;;;1.80;1.13;;;14.30;55.80;;;;;;5056689;28;20052;-48
2022/03/14 02:14:55;;;;;;;1.73;1.10;;;14.30;55.90;;;;;;5068903;28;20048;-48
2022/03/14 02:17:22;;;;;;;1.85;1.10;;;14.30;56.10;;;;;;5049068;28;20508;-48
2022/03/14 02:19:49;;;;;;;1.20;1.10;;;14.20;55.80;;;;;;5041387;28;20500;-47
2022/03/14 02:22:16;;;;;;;0.88;0.88;;;14.30;56.00;;;;;;5061564;28;20076;-49
2022/03/14 02:24:47;;;;;;;1.70;1.60;;;14.30;56.00;;;;;;5070470;28;20098;-49
2022/03/14 02:27:15;;;;;;;1.27;1.10;;;14.20;56.10;;;;;;5070057;28;20092;-48
2022/03/14 02:29:42;;;;;;;1.33;1.23;;;14.20;56.30;;;;;;5058421;28;20041;-48
2022/03/14 02:32:12;;;;;;;1.38;1.10;;;14.20;56.20;;;;;;5062066;28;20470;-49
2022/03/14 02:34:40;;;;;;;1.35;1.17;;;14.20;56.30;;;;;;5070416;28;20048;-47
2022/03/14 02:37:07;;;;;;;1.38;1.27;;;14.20;57.00;;;;;;5069257;28;20082;-48
2022/03/14 02:39:37;;;;;;;1.48;1.38;;;14.20;56.60;;;;;;5048059;28;20052;-48
2022/03/14 02:42:06;;;;;;;1.55;1.45;;;14.20;57.40;;;;;;5062245;28;20128;-48
2022/03/14 02:44:34;;;;;;;1.40;1.30;;;14.20;57.00;;;;;;5069923;28;20056;-47
2022/03/14 02:47:04;;;;;;;1.70;1.40;;;14.10;56.80;;;;;;5059237;28;20099;-48
2022/03/14 02:49:32;;;;;;;1.35;1.10;;;14.10;57.10;;;;;;5060350;28;20079;-47
2022/03/14 02:51:59;;;;;;;1.40;1.17;;;14.10;56.90;;;;;;5070637;28;20059;-47
2022/03/14 02:54:26;;;;;;;3.05;1.48;;;14.20;56.90;;;;;;5069295;28;20052;-49
2022/03/14 02:56:53;;;;;;;1.67;1.30;;;14.10;57.00;;;;;;5049682;28;20091;-48
2022/03/14 02:59:20;;;;;;;1.30;1.20;;;14.10;57.00;;;;;;5054173;28;20090;-47
2022/03/14 03:01:47;;;;;;;1.48;1.27;;;14.00;57.20;;;;;;5069337;28;20052;-48
2022/03/14 03:04:14;;;;;;;1.40;1.30;;;14.00;57.40;;;;;;5069667;28;20131;-48
2022/03/14 03:06:42;;;;;;;1.67;1.58;;;14.10;57.60;;;;;;5065005;28;20198;-49
2022/03/14 03:09:12;;;;;;;1.40;1.30;;;14.00;57.60;;;;;;5056588;28;20037;-47
2022/03/14 03:11:40;;;;;;;1.30;1.20;;;14.00;57.60;;;;;;5067217;28;20037;-47
2022/03/14 03:14:07;;;;;;;1.65;1.48;;;14.00;57.70;;;;;;5067406;28;20048;-48
2022/03/14 03:16:34;;;;;;;2.00;1.50;;;14.00;57.70;;;;;;5045705;28;20162;-47
2022/03/14 03:19:01;;;;;;;1.95;1.48;;;14.00;57.60;;;;;;5066918;28;20495;-48
2022/03/14 03:21:28;;;;;;;1.40;1.30;;;14.00;57.70;;;;;;5069233;28;20048;-48
2022/03/14 03:23:55;;;;;;;1.50;1.30;;;13.90;57.70;;;;;;5069029;28;20036;-47
2022/03/14 03:26:22;;;;;;;1.58;1.30;;;13.90;57.60;;;;;;5051784;28;20046;-48
2022/03/14 03:28:48;;;;;;;1.27;1.15;;;13.90;57.50;;;;;;5064234;28;20064;-49
2022/03/14 03:31:20;;;;;;;1.40;1.30;;;13.90;57.50;;;;;;5069579;28;20082;-48
2022/03/14 03:33:50;;;;;;;1.50;1.40;;;13.90;57.30;;;;;;5039965;28;20416;-48
2022/03/14 03:36:17;;;;;;;1.48;1.23;;;13.80;56.90;;;;;;5043484;28;20045;-48
2022/03/14 03:38:44;;;;;;;1.83;1.55;;;13.80;57.00;;;;;;5046883;28;20120;-47
2022/03/14 03:41:11;;;;;;;1.73;1.40;;;13.80;56.80;;;;;;5049557;28;20049;-47
2022/03/14 03:43:38;;;;;;;1.60;1.35;;;13.80;56.70;;;;;;5048150;28;20029;-50
2022/03/14 03:46:04;;;;;;;1.33;1.23;;;13.80;56.70;;;;;;5047426;28;20041;-48
2022/03/14 03:48:31;;;;;;;1.67;1.25;;;13.70;56.60;;;;;;5065457;28;20070;-48
2022/03/14 03:50:58;;;;;;;2.28;1.42;;;13.80;56.40;;;;;;5053325;28;20052;-49
2022/03/14 03:53:25;;;;;;;1.08;0.93;;;13.70;56.30;;;;;;5043531;28;20497;-47
2022/03/14 03:55:51;;;;;;;1.27;1.05;;;13.70;56.20;;;;;;5056211;28;20454;-47
2022/03/14 03:58:19;;;;;;;3.38;0.73;;;13.70;56.10;;;;;;5068528;28;20060;-48
2022/03/14 04:00:49;;;;;;;0.70;0.70;;;13.70;56.00;;;;;;5068859;28;20037;-50
2022/03/14 04:03:19;;;;;;;3.13;0.98;;;13.60;55.90;;;;;;5056873;28;20132;-48
2022/03/14 04:05:49;;;;;;;3.13;0.95;;;13.60;55.80;;;;;;5064445;28;20041;-47
2022/03/14 04:08:17;;;;;;;0.75;0.70;;;13.60;56.00;;;;;;5062445;28;20049;-47
2022/03/14 04:10:43;;;;;;;1.83;1.10;;;13.60;56.00;;;;;;5045627;28;20068;-48
2022/03/14 04:13:12;;;;;;;1.05;0.82;;;13.50;56.00;;;;;;5044053;28;20476;-49
2022/03/14 04:15:51;;;;;;;0.97;0.80;;;13.50;56.10;;;;;;5054752;28;20040;-50
2022/03/14 04:18:25;;;;;;;2.10;1.13;;;13.50;56.20;;;;;;5068313;28;20048;-48
2022/03/14 04:20:53;;;;;;;1.67;1.15;;;13.40;56.60;;;;;;5062945;28;20478;-50
2022/03/14 04:23:20;;;;;;;1.83;1.42;;;13.40;56.20;;;;;;5053240;28;20041;-48
2022/03/14 04:25:49;;;;;;;2.17;1.50;;;13.40;56.40;;;;;;5066563;28;20427;-50
2022/03/14 04:28:16;;;;;;;2.47;1.75;;;13.40;56.50;;;;;;5066982;28;20450;-49
2022/03/14 04:30:43;;;;;;;3.03;2.00;;;13.40;57.20;;;;;;5055350;28;20139;-48
2022/03/14 04:33:10;;;;;;;3.58;2.08;;;13.30;56.50;;;;;;5057981;28;20736;-48
2022/03/14 04:35:37;;;;;;;2.60;2.28;;;13.30;56.60;;;;;;5067894;28;20048;-48
2022/03/14 04:38:07;;;;;;;3.20;2.15;;;13.30;56.90;;;;;;5057376;28;20516;-50
2022/03/14 04:40:34;;;;;;;2.30;1.83;;;13.30;57.10;;;;;;5052562;28;20505;-49
2022/03/14 04:43:09;;;;;;;3.88;2.28;;;13.30;57.30;;;;;;5067016;28;20049;-47
2022/03/14 04:45:37;;;;;;;4.25;2.10;;;13.20;57.90;;;;;;5067981;28;20041;-48
2022/03/14 04:48:10;;;;;;;2.28;2.08;;;13.20;57.60;;;;;;5053031;28;20041;-48
2022/03/14 04:50:37;;;;;;;2.13;1.90;;;13.20;57.80;;;;;;5055798;28;20103;-47
2022/03/14 04:53:04;;;;;;;2.88;2.33;;;13.20;58.00;;;;;;5067716;28;20587;-48
2022/03/14 04:55:31;;;;;;;2.92;2.60;;;13.10;58.30;;;;;;5072541;28;20076;-49
2022/03/14 04:58:00;;;;;;;4.22;2.90;;;13.10;58.20;;;;;;5068642;28;20052;-49
2022/03/14 05:00:28;;;;;;;3.05;2.42;;;13.10;58.50;;;;;;5056409;28;20390;-47
2022/03/14 05:03:03;;;;;;;3.80;2.78;;;13.10;58.60;;;;;;5054833;28;20091;-48
2022/03/14 05:05:36;;;;;;;5.22;2.95;;;13.00;59.30;;;;;;5072818;28;20059;-48
2022/03/14 05:08:03;;;;;;;3.75;2.97;;;13.00;58.80;;;;;;5046927;28;20083;-48
2022/03/14 05:10:30;;;;;;;5.10;3.03;;;13.00;58.90;;;;;;5052562;28;20068;-48
2022/03/14 05:13:01;;;;;;;5.38;3.17;;;13.00;59.00;;;;;;5071217;28;20503;-50
2022/03/14 05:15:29;;;;;;;4.47;3.08;;;13.00;59.20;;;;;;5059745;28;20117;-51
2022/03/14 05:18:01;;;;;;;3.67;2.97;;;12.90;59.10;;;;;;5044818;28;20036;-48
2022/03/14 05:20:27;;;;;;;3.45;3.17;;;12.90;59.20;;;;;;5048217;28;20057;-50
2022/03/14 05:22:54;;;;;;;3.75;2.92;;;12.90;59.20;;;;;;5050413;28;20049;-48
2022/03/14 05:25:23;;;;;;;5.00;3.00;;;12.90;59.40;;;;;;5049012;28;20512;-47
2022/03/14 05:27:52;;;;;;;3.60;3.30;;;12.90;59.50;;;;;;5047577;28;20045;-48
2022/03/14 05:30:19;;;;;;;4.15;3.28;;;12.90;59.40;;;;;;5042762;28;20079;-49
2022/03/14 05:32:46;;;;;;;6.18;3.72;;;12.90;59.40;;;;;;5048753;28;20102;-48
2022/03/14 05:35:14;;;;;;;4.85;3.47;;;12.90;59.50;;;;;;5046918;28;20122;-49
2022/03/14 05:37:41;;;;;;;5.68;3.60;;;12.80;59.60;;;;;;5047057;28;20139;-47
2022/03/14 05:40:10;;;;;;;4.53;3.70;;;12.80;59.50;;;;;;5046745;28;20045;-48
2022/03/14 05:42:38;;;;;;;4.90;4.05;;;12.80;59.70;;;;;;5048283;28;20037;-50
2022/03/14 05:45:05;;;;;;;3.92;3.47;;;12.80;59.70;;;;;;5048973;28;20500;-49
2022/03/14 05:47:32;;;;;;;4.00;3.45;;;12.80;59.80;;;;;;5046889;28;20570;-49
2022/03/14 05:49:59;;;;;;;6.90;4.03;;;12.70;59.80;;;;;;5048791;28;20048;-48
2022/03/14 05:52:26;;;;;;;6.82;4.00;;;12.70;59.80;;;;;;5048479;28;20056;-48
2022/03/14 05:54:52;;;;;;;6.10;3.83;;;12.70;60.00;;;;;;5045844;28;20095;-49
2022/03/14 05:57:19;;;;;;;9.93;4.15;;;12.70;60.00;;;;;;5048869;28;20405;-48
2022/03/14 05:59:49;;;;;;;5.30;3.45;;;12.70;60.10;;;;;;5049645;28;20507;-50
2022/03/14 06:02:23;;;;;;;8.27;3.80;;;12.70;60.10;;;;;;5049033;28;20071;-47
2022/03/14 06:04:52;;;;;;;4.10;3.70;;;12.70;60.50;;;;;;5047644;28;20114;-48
2022/03/14 06:07:21;;;;;;;4.13;3.58;;;12.70;60.10;;;;;;5051202;28;20120;-48
2022/03/14 06:09:49;;;;;;;6.70;4.20;;;12.80;60.10;;;;;;5066335;28;20044;-50
2022/03/14 06:12:26;;;;;;;5.75;4.53;;;12.70;60.00;;;;;;5050581;28;20505;-50
2022/03/14 06:14:56;;;;;;;6.28;3.78;;;12.80;60.50;;;;;;5054406;28;20483;-49
2022/03/14 06:17:28;;;;;;;6.45;4.18;;;12.80;60.10;;;;;;5058000;28;20575;-48
2022/03/14 06:19:55;;;;;;;4.63;3.60;;;12.80;60.10;;;;;;5051388;28;20103;-48
2022/03/14 06:22:23;;;;;;;5.85;4.05;;;12.80;60.10;;;;;;5053070;28;20040;-49
2022/03/14 06:24:51;;;;;;;5.13;3.75;;;12.80;60.10;;;;;;5047901;28;20156;-54
2022/03/14 06:27:22;;;;;;;6.85;4.20;;;12.80;60.10;;;;;;5064335;28;20045;-54
2022/03/14 06:29:52;;;;;;;4.40;3.95;;;12.80;60.20;;;;;;5054711;28;20045;-54
2022/03/14 06:32:20;;;;;;;9.35;3.83;;;12.80;60.10;;;;;;5042118;28;20045;-53
2022/03/14 06:34:47;;;;;;;6.05;3.55;;;12.70;60.10;;;;;;5045019;28;20084;-54
2022/03/14 06:37:14;;;;;;;5.47;3.80;;;12.80;60.30;;;;;;5049245;28;20052;-54
2022/03/14 06:39:41;;;;;;;7.07;3.88;;;12.80;60.20;;;;;;5044998;28;20064;-52
2022/03/14 06:42:13;;;;;;;6.43;3.55;;;12.90;60.40;;;;;;5058024;28;20500;-55
2022/03/14 06:44:41;;;;;;;4.55;3.45;;;12.80;60.20;;;;;;5059999;28;20377;-55
2022/03/14 06:47:10;;;;;;;4.07;3.67;;;12.90;60.20;;;;;;5068845;28;20105;-54
2022/03/14 06:49:39;;;;;;;4.95;3.40;;;12.80;60.30;;;;;;5060107;28;20462;-51
2022/03/14 06:52:06;;;;;;;5.28;3.40;;;12.80;60.20;;;;;;5043101;28;20052;-54
2022/03/14 06:54:35;;;;;;;5.70;3.65;;;12.80;60.10;;;;;;5061532;28;20125;-51
2022/03/14 06:57:01;;;;;;;4.05;3.13;;;12.80;60.20;;;;;;5052642;28;20091;-55
2022/03/14 06:59:28;;;;;;;10.27;4.10;;;12.90;60.20;;;;;;5045159;28;20106;-54
2022/03/14 07:01:55;;;;;;;6.05;4.10;;;12.90;60.20;;;;;;5053146;28;20059;-54
2022/03/14 07:04:22;;;;;;;4.25;3.40;;;12.80;60.40;;;;;;5064725;28;20395;-51
2022/03/14 07:06:50;;;;;;;6.05;4.07;;;12.80;60.20;;;;;;5060037;28;20056;-52
2022/03/14 07:09:17;;;;;;;3.75;3.10;;;12.80;60.30;;;;;;5040832;28;20044;-55
2022/03/14 07:11:44;;;;;;;3.85;3.03;;;12.90;60.20;;;;;;5044087;28;20049;-53
2022/03/14 07:14:11;;;;;;;7.22;3.35;;;12.90;60.10;;;;;;5037151;28;20036;-53
2022/03/14 07:16:37;;;;;;;4.47;3.20;;;12.90;60.20;;;;;;5044740;28;20044;-54
2022/03/14 07:19:04;;;;;;;4.03;3.05;;;12.90;60.20;;;;;;5047178;28;20040;-53
2022/03/14 07:21:34;;;;;;;5.20;3.30;;;12.90;60.20;;;;;;5048221;28;20061;-54
2022/03/14 07:24:00;;;;;;;5.18;3.78;;;12.90;60.20;;;;;;5054541;28;20140;-55
2022/03/14 07:26:27;;;;;;;4.65;3.03;;;12.90;60.20;;;;;;5049101;28;20158;-55
2022/03/14 07:28:54;;;;;;;5.15;3.17;;;13.00;60.30;;;;;;5048256;28;20095;-55
2022/03/14 07:31:21;;;;;;;4.28;2.75;;;12.90;60.30;;;;;;5048134;28;20041;-55
2022/03/14 07:33:48;;;;;;;6.03;3.35;;;13.00;60.30;;;;;;5053461;28;20120;-54
2022/03/14 07:36:15;;;;;;;4.60;3.35;;;13.00;60.20;;;;;;5067573;28;20044;-53
2022/03/14 07:38:42;;;;;;;5.22;3.40;;;13.00;60.30;;;;;;5047229;28;20111;-55
2022/03/14 07:41:10;;;;;;;6.88;3.20;;;13.00;60.20;;;;;;5057913;28;20049;-54
2022/03/14 07:43:38;;;;;;;5.65;3.03;;;13.10;60.10;;;;;;5054840;28;20069;-55
2022/03/14 07:46:05;;;;;;;5.88;3.17;;;13.10;60.20;;;;;;5049983;28;20045;-58
2022/03/14 07:48:32;;;;;;;3.55;3.08;;;13.10;60.20;;;;;;5044284;28;20377;-58
2022/03/14 07:50:58;;;;;;;6.82;2.90;;;13.10;60.20;;;;;;5048649;28;20098;-57
2022/03/14 07:53:25;;;;;;;4.95;3.05;;;13.20;60.30;;;;;;5049481;28;20052;-57
2022/03/14 07:55:52;;;;;;;4.75;3.13;;;13.20;60.10;;;;;;5046946;28;20463;-57
2022/03/14 07:58:19;;;;;;;7.18;3.70;;;13.20;60.00;;;;;;5046787;28;20057;-57
2022/03/14 08:00:46;;;;;;;8.18;3.28;;;13.30;60.10;;;;;;5050562;28;20084;-58
2022/03/14 08:03:15;;;;;;;4.90;3.03;;;13.30;60.10;;;;;;5070212;28;20458;-58
2022/03/14 08:05:45;;;;;;;6.38;3.17;;;13.30;60.00;;;;;;5062784;28;20041;-57
2022/03/14 08:08:15;;;;;;;5.50;3.45;;;13.30;59.80;;;;;;5050869;28;20033;-56
2022/03/14 08:10:43;;;;;;;5.88;3.30;;;13.40;59.80;;;;;;5047975;28;20059;-55
2022/03/14 08:13:09;;;;;;;5.25;3.35;;;13.40;59.80;;;;;;5048653;28;20465;-57
2022/03/14 08:15:36;;;;;;;6.30;3.55;;;13.40;60.00;;;;;;5045824;28;20096;-57
2022/03/14 08:18:07;;;;;;;3.95;2.60;;;13.50;60.00;;;;;;5057305;28;20055;-56
2022/03/14 08:20:34;;;;;;;3.92;2.63;;;13.60;60.00;;;;;;5069576;28;20665;-53
2022/03/14 08:23:02;;;;;;;4.65;2.45;;;13.60;59.70;;;;;;5069946;28;20098;-58
2022/03/14 08:25:30;;;;;;;5.22;2.97;;;13.70;59.50;;;;;;5050674;28;20048;-57
2022/03/14 08:27:57;;;;;;;6.45;3.08;;;13.70;59.30;;;;;;5044036;28;20083;-57
2022/03/14 08:30:25;;;;;;;4.00;2.88;;;13.70;59.20;;;;;;5069206;28;20098;-58
2022/03/14 08:32:54;;;;;;;3.63;2.60;;;13.70;59.10;;;;;;5073052;28;20123;-57
2022/03/14 08:35:21;;;;;;;6.10;2.92;;;13.80;59.00;;;;;;5055545;28;20041;-57
2022/03/14 08:37:50;;;;;;;6.18;3.03;;;13.80;58.80;;;;;;5064013;28;20080;-58
2022/03/14 08:40:22;;;;;;;4.00;2.65;;;13.80;58.70;;;;;;5067112;28;20098;-57
2022/03/14 08:42:51;;;;;;;5.03;3.28;;;13.80;58.80;;;;;;5052486;28;20267;-57
2022/03/14 08:45:19;;;;;;;5.65;3.13;;;13.80;58.70;;;;;;5055139;28;20090;-57
2022/03/14 08:47:46;;;;;;;4.97;3.78;;;13.80;58.60;;;;;;5053415;28;20048;-57
2022/03/14 08:50:14;;;;;;;6.22;3.08;;;13.80;58.40;;;;;;5052900;28;20069;-57
2022/03/14 08:52:42;;;;;;;4.65;3.00;;;13.80;58.40;;;;;;5049909;28;20045;-57
2022/03/14 08:55:09;;;;;;;4.15;3.60;;;13.80;58.40;;;;;;5051872;28;20041;-54
2022/03/14 08:57:40;;;;;;;7.20;4.07;;;13.80;58.30;;;;;;5070617;28;20071;-55
2022/03/14 09:00:07;;;;;;;5.72;4.05;;;13.80;58.30;;;;;;5063949;28;20071;-57
2022/03/14 09:02:36;;;;;;;5.70;3.67;;;13.80;58.30;;;;;;5049799;28;20045;-58
2022/03/14 09:05:03;;;;;;;6.57;3.67;;;13.90;58.30;;;;;;5064309;28;20045;-57
2022/03/14 09:07:31;;;;;;;5.30;3.60;;;13.90;58.40;;;;;;5060193;28;20056;-56
2022/03/14 09:10:06;;;;;;;6.32;4.18;;;13.90;58.30;;;;;;5048209;28;20067;-58
2022/03/14 09:12:33;;;;;;;6.63;3.97;;;14.00;58.40;;;;;;5046471;28;20049;-56
2022/03/14 09:15:02;;;;;;;5.60;4.10;;;14.10;58.50;;;;;;5065788;28;20032;-58
2022/03/14 09:17:31;;;;;;;6.18;4.03;;;14.10;58.40;;;;;;5053666;28;20053;-55
2022/03/14 09:20:01;;;;;;;7.32;3.70;;;14.20;58.40;;;;;;5044789;28;20452;-54
2022/03/14 09:22:28;;;;;;;5.68;3.53;;;14.30;57.60;;;;;;5056594;28;20450;-55
2022/03/14 09:24:58;;;;;;;5.35;3.97;;;14.40;57.50;;;;;;5070758;28;20040;-55
2022/03/14 09:27:25;;;;;;;7.00;4.05;;;14.50;57.30;;;;;;5072825;28;20521;-58
2022/03/14 09:29:52;;;;;;;6.45;3.88;;;14.60;56.80;;;;;;5052929;28;20094;-56
2022/03/14 09:32:20;;;;;;;4.57;3.60;;;14.70;56.60;;;;;;5050593;28;20496;-57
2022/03/14 09:34:46;;;;;;;6.45;3.85;;;14.70;56.30;;;;;;5070163;28;20086;-58
2022/03/14 09:37:13;;;;;;;4.82;3.75;;;14.70;56.10;;;;;;5070560;28;20530;-55
2022/03/14 09:39:41;;;;;;;5.55;3.90;;;14.80;56.10;;;;;;5042249;28;20045;-55
2022/03/14 09:42:11;;;;;;;7.30;4.43;;;14.80;55.70;;;;;;5044416;28;20046;-55
2022/03/14 09:44:42;;;;;;;5.25;3.63;;;14.90;55.40;;;;;;5049817;28;20045;-56
2022/03/14 09:47:11;;;;;;;8.27;3.85;;;14.90;55.20;;;;;;5052160;28;20041;-54
2022/03/14 09:49:42;;;;;;;5.22;4.28;;;14.90;55.40;;;;;;5045074;28;20057;-53
2022/03/14 09:52:10;;;;;;;6.75;4.47;;;15.00;55.40;;;;;;5041085;28;20132;-55
2022/03/14 09:54:37;;;;;;;6.15;4.40;;;15.00;55.20;;;;;;5050910;28;20037;-54
2022/03/14 09:57:04;;;;;;;6.47;4.95;;;15.00;55.00;;;;;;5051943;28;20416;-56
2022/03/14 09:59:32;;;;;;;5.38;4.47;;;15.00;55.00;;;;;;5043661;28;20137;-52
2022/03/14 10:04:29;;;;;;;7.53;3.92;;;15.00;55.00;;;;;;4987777;28;20640;-48
2022/03/14 10:06:56;;;;;;;6.90;4.00;;;15.10;55.70;;;;;;4992713;28;20034;-49
2022/03/14 10:09:22;;;;;;;4.20;3.72;;;15.10;54.90;;;;;;4987801;28;20046;-49
2022/03/14 10:11:49;;;;;;;4.47;3.92;;;15.10;54.50;;;;;;5000640;28;20104;-51
2022/03/14 10:14:19;;;;;;;6.30;4.55;;;15.20;54.20;;;;;;4988939;28;20043;-48
2022/03/14 10:16:46;;;;;;;4.35;3.83;;;15.20;54.20;;;;;;4987510;28;20050;-49
2022/03/14 10:19:20;;;;;;;7.35;4.38;;;15.20;54.00;;;;;;4967419;28;20058;-51
2022/03/14 10:21:50;;;;;;;4.60;3.92;;;15.10;53.60;;;;;;4986502;28;20042;-48
2022/03/14 10:24:22;;;;;;;5.28;3.92;;;15.10;53.70;;;;;;4988541;28;20038;-53
2022/03/14 10:26:49;;;;;;;5.15;4.28;;;15.00;54.00;;;;;;4991526;28;20109;-50
2022/03/14 10:29:20;;;;;;;6.75;4.47;;;15.00;54.40;;;;;;4995748;28;20108;-48
2022/03/14 10:31:56;;;;;;;5.88;3.63;;;14.90;54.50;;;;;;5000774;28;20050;-51
2022/03/14 10:34:23;;;;;;;4.35;3.92;;;14.90;54.60;;;;;;4991820;28;20058;-49
2022/03/14 10:36:53;;;;;;;5.53;3.65;;;14.90;55.10;;;;;;4990951;28;20049;-53
2022/03/14 10:39:27;;;;;;;6.25;3.88;;;14.90;55.10;;;;;;4991314;28;20046;-49
2022/03/14 10:42:04;;;;;;;3.78;3.40;;;15.00;55.10;;;;;;4995754;28;20117;-49
2022/03/14 10:44:45;;;;;;;4.50;3.40;;;15.10;54.50;;;;;;4987384;28;20482;-50
2022/03/14 10:47:13;;;;;;;6.85;3.70;;;15.30;54.60;;;;;;4986534;28;20072;-49
2022/03/14 10:49:45;;;;;;;7.30;4.18;;;15.40;54.10;;;;;;4987753;28;20105;-52
2022/03/14 10:52:17;;;;;;;6.40;3.33;;;15.40;53.60;;;;;;4981970;28;20054;-49
2022/03/14 10:54:44;;;;;;;4.37;3.83;;;15.50;53.40;;;;;;4976860;28;20070;-49
2022/03/14 10:57:13;;;;;;;5.70;3.20;;;15.60;53.40;;;;;;5000836;28;20288;-49
2022/03/14 10:59:40;;;;;;;5.35;3.50;;;15.60;53.50;;;;;;4998023;28;20042;-49
2022/03/14 11:02:09;;;;;;;4.72;3.42;;;15.70;53.40;;;;;;4991970;28;20042;-48
2022/03/14 11:04:56;;;;;;;5.72;3.20;;;15.70;53.20;;;;;;4985717;28;20053;-50
2022/03/14 11:07:27;;;;;;;4.32;3.30;;;15.80;52.50;;;;;;4997061;28;20121;-50
2022/03/14 11:09:56;;;;;;;5.77;3.77;;;16.00;52.60;;;;;;4992245;28;20046;-49
2022/03/14 11:12:25;;;;;;;7.00;3.78;;;16.00;52.50;;;;;;4975837;28;20043;-53
2022/03/14 11:15:04;;;;;;;6.35;4.00;;;16.10;52.40;;;;;;4990047;28;20050;-54
2022/03/14 11:17:36;;;;;;;7.10;4.13;;;16.20;51.90;;;;;;4999145;28;20050;-49
2022/03/14 11:20:23;;;;;;;7.93;4.88;;;16.30;52.20;;;;;;4980691;28;20145;-53
2022/03/14 11:22:51;;;;;;;5.43;3.60;;;16.40;52.10;;;;;;4984194;28;20050;-48
2022/03/14 11:25:20;;;;;;;4.60;3.30;;;16.40;51.60;;;;;;4983013;28;20042;-52
2022/03/14 11:27:48;;;;;;;4.80;3.70;;;16.40;51.50;;;;;;4991419;28;20046;-48
2022/03/14 11:30:16;;;;;;;3.97;3.58;;;16.40;51.60;;;;;;4991335;28;20043;-50
2022/03/14 11:32:44;;;;;;;5.63;3.70;;;16.50;51.70;;;;;;4983771;28;20046;-54
2022/03/14 11:35:12;;;;;;;5.20;4.03;;;16.50;51.40;;;;;;5002402;28;20085;-53
2022/03/14 11:37:42;;;;;;;4.28;3.88;;;16.60;51.40;;;;;;5001236;28;20462;-51
2022/03/14 11:40:09;;;;;;;7.22;3.90;;;16.60;51.00;;;;;;4983200;28;20046;-51
2022/03/14 11:42:36;;;;;;;4.22;3.50;;;16.70;50.40;;;;;;4983868;28;20110;-49
2022/03/14 11:45:07;;;;;;;4.22;2.97;;;16.60;50.30;;;;;;4991343;28;20065;-50
2022/03/14 11:47:34;;;;;;;5.38;3.05;;;16.70;50.50;;;;;;4983324;28;20130;-49
2022/03/14 11:50:02;;;;;;;5.18;2.90;;;16.70;50.50;;;;;;4982466;28;20094;-49
2022/03/14 11:52:39;;;;;;;2.80;2.60;;;16.70;50.20;;;;;;4986863;28;20034;-52
2022/03/14 11:55:19;;;;;;;6.60;3.33;;;16.70;49.80;;;;;;4987030;28;20050;-49
2022/03/14 11:57:47;;;;;;;5.68;2.97;;;16.80;49.50;;;;;;4980931;28;20511;-49
2022/03/14 12:00:32;;;;;;;4.50;2.40;;;16.80;49.70;;;;;;4990628;28;20069;-50
2022/03/14 12:03:05;;;;;;;5.15;2.75;;;16.80;49.40;;;;;;4993538;28;20523;-50
2022/03/14 12:05:32;;;;;;;4.45;2.65;;;16.80;49.30;;;;;;5003002;28;20049;-49
2022/03/14 12:08:01;;;;;;;6.35;2.60;;;16.80;49.30;;;;;;4994112;28;20098;-49
2022/03/14 12:10:28;;;;;;;3.10;2.80;;;16.70;49.00;;;;;;4990607;28;20495;-50
2022/03/14 12:12:58;;;;;;;5.22;2.83;;;16.70;49.10;;;;;;4999425;28;20069;-52
2022/03/14 12:15:41;;;;;;;3.45;2.90;;;16.70;48.90;;;;;;4991641;28;20046;-50
2022/03/14 12:18:28;;;;;;;3.45;2.40;;;16.70;48.60;;;;;;4989048;28;20042;-51
2022/03/14 12:21:02;;;;;;;4.60;2.80;;;16.70;48.70;;;;;;4992844;28;20409;-50
2022/03/14 12:23:34;;;;;;;2.85;2.35;;;16.70;48.50;;;;;;4993365;28;20129;-49
2022/03/14 12:26:24;;;;;;;4.22;2.58;;;16.70;48.70;;;;;;4986839;28;20108;-50
2022/03/14 12:28:52;;;;;;;4.55;3.00;;;16.70;48.40;;;;;;4989487;28;20034;-51
2022/03/14 12:31:19;;;;;;;4.53;2.50;;;16.70;48.90;;;;;;4994136;28;20034;-52
2022/03/14 12:33:51;;;;;;;5.18;3.33;;;16.60;48.90;;;;;;4994521;28;20462;-50
2022/03/14 12:36:43;;;;;;;4.70;2.90;;;16.60;48.80;;;;;;4988743;28;20070;-49
2022/03/14 12:39:10;;;;;;;3.42;3.13;;;16.60;49.20;;;;;;4989056;28;20116;-52
2022/03/14 12:41:41;;;;;;;3.83;3.08;;;16.60;49.40;;;;;;4993136;28;20406;-49
2022/03/14 12:44:25;;;;;;;4.28;2.55;;;16.60;49.40;;;;;;4993016;28;20050;-50
2022/03/14 12:46:58;;;;;;;5.00;2.65;;;16.60;49.10;;;;;;4988200;28;20043;-52
2022/03/14 12:49:48;;;;;;;3.80;2.60;;;16.70;49.10;;;;;;4991711;28;20050;-49
2022/03/14 12:52:16;;;;;;;3.72;2.47;;;16.70;49.40;;;;;;4981797;28;20481;-51
2022/03/14 12:54:46;;;;;;;5.13;2.67;;;16.70;48.70;;;;;;4989933;28;20045;-50
2022/03/14 12:57:17;;;;;;;3.22;2.20;;;16.80;48.40;;;;;;4983622;28;20101;-52
2022/03/14 12:59:45;;;;;;;4.65;2.90;;;16.80;48.60;;;;;;4987313;28;20050;-52